Time;durP1;ratioP1;P1;durP2;ratioP2;P2;SDS_P1;SDS_P2;PMS_P1;PMS_P2;Temp;Humidity;BMP_temperature;BMP_pressure;BME280_temperature;BME280_humidity;BME280_pressure;Samples;Min_cycle;Max_cycle;Signal;HPM_P1;HPM_P2
2022/06/24 00:00:40;;;;;;;15.93;14.52;;;19.60;99.90;;;;;;4663221;30;20082;-84
2022/06/24 00:03:06;;;;;;;15.43;14.15;;;19.50;99.90;;;;;;4665784;30;20049;-84
2022/06/24 00:05:34;;;;;;;15.50;14.30;;;19.40;99.90;;;;;;4665186;30;20467;-84
2022/06/24 00:08:00;;;;;;;16.45;14.82;;;19.30;99.90;;;;;;4664968;30;20531;-84
2022/06/24 00:10:35;;;;;;;16.30;14.82;;;19.30;99.90;;;;;;4663869;30;20141;-84
2022/06/24 00:13:01;;;;;;;15.60;14.20;;;19.20;99.90;;;;;;4665746;30;20133;-84
2022/06/24 00:15:28;;;;;;;16.58;14.85;;;19.20;99.90;;;;;;4664622;30;20138;-84
2022/06/24 00:17:55;;;;;;;15.50;13.98;;;19.10;99.90;;;;;;4664710;30;20045;-84
2022/06/24 00:20:22;;;;;;;15.90;14.32;;;19.10;99.90;;;;;;4662549;30;20050;-84
2022/06/24 00:22:50;;;;;;;16.05;14.52;;;19.00;99.90;;;;;;4648883;30;20074;-84
2022/06/24 00:25:24;;;;;;;16.35;14.93;;;18.90;99.90;;;;;;4664205;30;20052;-85
2022/06/24 00:28:08;;;;;;;15.98;14.45;;;18.90;99.90;;;;;;4665635;30;20411;-84
2022/06/24 00:30:43;;;;;;;16.65;15.13;;;18.80;99.90;;;;;;4665951;30;20050;-84
2022/06/24 00:33:08;;;;;;;17.15;15.60;;;18.70;99.90;;;;;;4650623;30;20082;-84
2022/06/24 00:36:00;;;;;;;17.90;16.10;;;18.80;99.90;;;;;;4650722;30;20078;-84
2022/06/24 00:38:30;;;;;;;17.85;16.17;;;18.70;99.90;;;;;;4644389;30;20082;-84
2022/06/24 00:41:07;;;;;;;16.45;15.07;;;18.70;99.90;;;;;;4664635;30;20079;-84
2022/06/24 00:43:40;;;;;;;18.98;17.38;;;18.60;99.90;;;;;;4665267;30;20042;-84
2022/06/24 00:46:12;;;;;;;;;;;18.60;99.90;;;;;;4664911;30;20047;-84
2022/06/24 00:48:45;;;;;;;19.05;17.42;;;18.60;99.90;;;;;;4664258;30;20303;-84
2022/06/24 00:51:11;;;;;;;19.55;17.90;;;18.50;99.90;;;;;;4665676;30;20525;-83
2022/06/24 00:53:43;;;;;;;20.13;18.42;;;18.50;99.90;;;;;;4663833;30;20047;-84
2022/06/24 00:56:11;;;;;;;21.90;19.67;;;18.40;99.90;;;;;;4651164;30;20051;-83
2022/06/24 00:58:37;;;;;;;18.30;16.67;;;18.40;99.90;;;;;;4665129;30;20129;-83
2022/06/24 01:01:03;;;;;;;21.70;19.77;;;18.20;99.90;;;;;;4665766;30;20138;-83
2022/06/24 01:03:37;;;;;;;20.35;18.48;;;18.20;99.90;;;;;;4663894;30;20495;-83
2022/06/24 01:06:03;;;;;;;21.52;19.63;;;18.20;99.90;;;;;;4662803;30;20043;-83
2022/06/24 01:08:30;;;;;;;20.48;18.70;;;18.20;99.90;;;;;;4665152;30;20545;-83
2022/06/24 01:10:56;;;;;;;19.98;18.38;;;18.20;99.90;;;;;;4665292;30;20090;-83
2022/06/24 01:13:23;;;;;;;21.27;19.35;;;18.10;99.90;;;;;;4664134;30;20428;-83
2022/06/24 01:15:49;;;;;;;21.73;19.73;;;18.00;99.90;;;;;;4663704;30;20551;-84
2022/06/24 01:18:15;;;;;;;21.63;19.48;;;18.10;99.90;;;;;;4664084;30;20137;-83
2022/06/24 01:20:41;;;;;;;21.20;19.27;;;17.90;99.90;;;;;;4665369;30;20050;-83
2022/06/24 01:23:07;;;;;;;19.55;17.88;;;17.90;99.90;;;;;;4664358;30;20461;-83
2022/06/24 01:25:32;;;;;;;20.25;18.25;;;17.90;99.90;;;;;;4664181;30;20038;-83
2022/06/24 01:27:59;;;;;;;20.52;18.52;;;17.90;99.90;;;;;;4664858;30;20529;-83
2022/06/24 01:30:26;;;;;;;19.13;17.52;;;17.90;99.90;;;;;;4659346;30;20101;-83
2022/06/24 01:32:51;;;;;;;18.38;16.77;;;18.00;99.90;;;;;;4653818;30;20116;-83
2022/06/24 01:35:17;;;;;;;18.17;16.52;;;18.00;99.90;;;;;;4664165;30;20506;-83
2022/06/24 01:37:43;;;;;;;18.48;16.75;;;18.10;99.90;;;;;;4664843;30;20057;-83
2022/06/24 01:40:09;;;;;;;19.42;17.55;;;18.10;99.90;;;;;;4664695;30;20081;-83
2022/06/24 01:42:35;;;;;;;16.70;15.25;;;18.10;99.90;;;;;;4664550;30;20045;-83
2022/06/24 01:45:01;;;;;;;19.90;18.25;;;18.10;99.90;;;;;;4658984;30;20047;-83
2022/06/24 01:47:26;;;;;;;20.25;18.55;;;18.10;99.90;;;;;;4648006;30;20077;-83
2022/06/24 01:49:52;;;;;;;16.95;15.55;;;18.10;99.90;;;;;;4663289;30;20080;-83
2022/06/24 01:52:17;;;;;;;18.73;16.85;;;18.00;99.90;;;;;;4664730;30;20046;-83
2022/06/24 01:54:43;;;;;;;17.42;16.00;;;18.00;99.90;;;;;;4663851;30;20058;-84
2022/06/24 01:57:09;;;;;;;20.10;18.25;;;18.00;99.90;;;;;;4664353;30;20113;-84
2022/06/24 01:59:34;;;;;;;20.65;18.50;;;18.00;99.90;;;;;;4663418;30;20050;-84
2022/06/24 02:02:00;;;;;;;23.40;21.10;;;17.90;99.90;;;;;;4663766;30;20042;-83
2022/06/24 02:04:26;;;;;;;20.95;19.10;;;18.00;99.90;;;;;;4664081;30;20129;-83
2022/06/24 02:06:51;;;;;;;22.40;20.27;;;18.00;99.90;;;;;;4663763;30;20042;-83
2022/06/24 02:09:17;;;;;;;19.33;17.73;;;18.00;99.90;;;;;;4663291;30;20100;-83
2022/06/24 02:14:31;;;;;;;18.65;16.48;;;18.10;99.90;;;;;;4663508;30;20484;-83
2022/06/24 02:16:57;;;;;;;19.90;18.30;;;18.10;99.90;;;;;;4658494;30;20043;-84
2022/06/24 02:19:23;;;;;;;23.35;21.45;;;18.20;99.90;;;;;;4639341;30;20074;-85
2022/06/24 02:21:48;;;;;;;22.52;20.25;;;18.20;99.90;;;;;;4678132;30;20038;-82
2022/06/24 02:24:15;;;;;;;21.92;19.95;;;18.20;99.90;;;;;;4662065;30;20426;-83
2022/06/24 02:26:42;;;;;;;22.73;20.60;;;18.20;99.90;;;;;;4663577;30;20156;-83
2022/06/24 02:29:07;;;;;;;22.77;20.83;;;18.20;99.90;;;;;;4663839;30;20042;-83
2022/06/24 02:31:33;;;;;;;23.48;21.25;;;18.30;99.90;;;;;;4664176;30;20051;-83
2022/06/24 02:33:59;;;;;;;21.58;19.63;;;18.30;99.90;;;;;;4664185;30;20054;-82
2022/06/24 02:36:24;;;;;;;23.13;21.13;;;18.30;99.90;;;;;;4661808;30;20050;-83
2022/06/24 02:38:50;;;;;;;21.10;19.17;;;18.30;99.90;;;;;;4663535;30;20085;-83
2022/06/24 02:41:16;;;;;;;20.98;19.05;;;18.30;99.90;;;;;;4660326;30;20420;-82
2022/06/24 02:43:42;;;;;;;22.45;20.35;;;18.30;99.90;;;;;;4663871;30;20060;-83
2022/06/24 02:46:12;;;;;;;22.13;20.15;;;18.30;99.90;;;;;;4662758;30;20422;-84
2022/06/24 02:48:41;;;;;;;22.80;20.63;;;18.40;99.90;;;;;;4663294;30;20097;-83
2022/06/24 02:51:08;;;;;;;22.05;19.75;;;18.50;99.90;;;;;;4648609;30;20046;-82
2022/06/24 02:53:35;;;;;;;20.38;18.58;;;18.40;99.90;;;;;;4663623;30;20109;-83
2022/06/24 02:56:06;;;;;;;26.50;24.00;;;18.40;99.90;;;;;;4663020;30;20074;-82
2022/06/24 02:58:32;;;;;;;23.13;21.08;;;18.50;99.90;;;;;;4663288;30;20058;-83
2022/06/24 03:00:59;;;;;;;26.38;23.95;;;18.50;99.90;;;;;;4663654;30;20042;-83
2022/06/24 03:03:25;;;;;;;28.95;26.38;;;18.50;99.90;;;;;;4661890;30;20399;-82
2022/06/24 03:05:52;;;;;;;28.60;25.92;;;18.50;99.90;;;;;;4662660;30;20129;-82
2022/06/24 03:08:19;;;;;;;27.75;25.13;;;18.50;99.90;;;;;;4663658;30;20483;-83
2022/06/24 03:10:45;;;;;;;32.97;30.08;;;18.50;99.90;;;;;;4663577;30;20085;-83
2022/06/24 03:13:11;;;;;;;33.75;30.77;;;18.60;99.90;;;;;;4663669;30;20050;-83
2022/06/24 03:15:37;;;;;;;40.88;37.22;;;18.60;99.90;;;;;;4661962;30;20057;-82
2022/06/24 03:18:04;;;;;;;45.80;41.42;;;18.60;99.90;;;;;;4658099;30;20086;-83
2022/06/24 03:20:30;;;;;;;54.13;48.72;;;18.60;99.90;;;;;;4640858;30;20391;-82
2022/06/24 03:22:56;;;;;;;61.58;53.45;;;18.70;99.90;;;;;;4663390;30;20101;-82
2022/06/24 03:25:21;;;;;;;59.40;52.83;;;18.60;99.90;;;;;;4662455;30;20046;-82
2022/06/24 03:27:47;;;;;;;60.45;54.42;;;18.70;99.90;;;;;;4662993;30;20040;-82
2022/06/24 03:30:14;;;;;;;58.25;52.65;;;18.70;99.90;;;;;;4663691;30;20463;-82
2022/06/24 03:32:41;;;;;;;60.70;54.28;;;18.80;99.90;;;;;;4663608;30;20085;-82
2022/06/24 03:35:08;;;;;;;59.90;53.72;;;18.80;99.90;;;;;;4662593;30;20523;-83
2022/06/24 03:37:34;;;;;;;60.30;54.00;;;18.90;99.90;;;;;;4666613;30;20141;-83
2022/06/24 03:40:00;;;;;;;65.57;54.00;;;18.90;99.90;;;;;;4666024;30;20073;-83
2022/06/24 03:42:26;;;;;;;49.90;45.05;;;19.00;99.90;;;;;;4666697;30;20522;-83
2022/06/24 03:44:52;;;;;;;46.60;41.70;;;19.10;99.90;;;;;;4665911;30;20129;-83
2022/06/24 03:47:18;;;;;;;42.97;38.78;;;19.10;99.90;;;;;;4652140;30;20522;-83
2022/06/24 03:49:44;;;;;;;35.38;31.80;;;19.20;99.90;;;;;;4664674;30;20050;-82
2022/06/24 03:52:11;;;;;;;31.00;27.85;;;19.20;99.90;;;;;;4655078;30;20058;-83
2022/06/24 03:54:37;;;;;;;27.13;24.17;;;19.30;99.90;;;;;;4665326;30;20056;-83
2022/06/24 03:57:03;;;;;;;20.50;18.52;;;19.40;99.90;;;;;;4668192;30;20042;-83
2022/06/24 03:59:29;;;;;;;16.75;14.90;;;19.30;99.90;;;;;;4665105;30;20057;-83
2022/06/24 04:01:55;;;;;;;14.40;13.10;;;19.40;99.90;;;;;;4666408;30;20354;-82
2022/06/24 04:04:21;;;;;;;15.18;13.68;;;19.40;99.90;;;;;;4665584;30;20046;-83
2022/06/24 04:06:46;;;;;;;14.43;12.95;;;19.30;99.90;;;;;;4665311;30;20043;-82
2022/06/24 04:09:13;;;;;;;12.60;11.40;;;19.30;99.90;;;;;;4665686;30;20058;-82
2022/06/24 04:11:39;;;;;;;14.20;12.73;;;19.30;99.90;;;;;;4651961;30;20062;-82
2022/06/24 04:14:04;;;;;;;12.90;11.55;;;19.30;99.90;;;;;;4666122;30;20042;-83
2022/06/24 04:16:30;;;;;;;12.43;11.00;;;19.30;99.90;;;;;;4664350;30;20061;-83
2022/06/24 04:18:56;;;;;;;11.70;10.00;;;19.30;99.90;;;;;;4656633;30;20141;-83
2022/06/24 04:21:22;;;;;;;11.43;9.38;;;19.30;99.90;;;;;;4666291;30;20133;-83
2022/06/24 04:23:51;;;;;;;11.18;9.90;;;19.30;99.90;;;;;;4665202;30;20035;-82
2022/06/24 04:26:18;;;;;;;10.63;9.65;;;19.30;99.90;;;;;;4662910;30;20047;-82
2022/06/24 04:28:45;;;;;;;9.63;8.77;;;19.40;99.90;;;;;;4665154;30;20054;-82
2022/06/24 04:31:11;;;;;;;8.88;7.95;;;19.40;99.90;;;;;;4665123;30;20062;-82
2022/06/24 04:33:37;;;;;;;10.35;8.05;;;19.40;99.90;;;;;;4665815;30;20061;-82
2022/06/24 04:36:03;;;;;;;9.48;8.60;;;19.50;99.90;;;;;;4678964;30;20097;-83
2022/06/24 04:38:29;;;;;;;9.48;8.30;;;19.60;99.90;;;;;;4664906;30;20046;-82
2022/06/24 04:40:55;;;;;;;9.25;8.38;;;19.60;99.90;;;;;;4665689;30;20120;-83
2022/06/24 04:43:20;;;;;;;9.38;8.25;;;19.60;99.90;;;;;;4656666;30;20070;-83
2022/06/24 04:45:46;;;;;;;9.45;8.45;;;19.70;99.90;;;;;;4665135;30;20038;-83
2022/06/24 04:48:15;;;;;;;9.32;8.35;;;19.70;99.90;;;;;;4665235;30;20046;-84
2022/06/24 04:50:53;;;;;;;9.23;8.30;;;19.70;99.90;;;;;;4664169;30;20046;-84
2022/06/24 04:53:19;;;;;;;9.80;8.80;;;19.70;99.90;;;;;;4665372;30;20053;-84
2022/06/24 04:55:45;;;;;;;10.02;9.02;;;19.60;99.90;;;;;;4664827;30;20077;-84
2022/06/24 04:58:10;;;;;;;10.60;9.35;;;19.70;99.90;;;;;;4665246;30;20042;-83
2022/06/24 05:00:37;;;;;;;10.38;9.23;;;19.70;99.90;;;;;;4665169;30;20049;-83
2022/06/24 05:03:03;;;;;;;11.30;10.30;;;19.70;99.90;;;;;;4663844;30;20475;-83
2022/06/24 05:05:28;;;;;;;11.52;10.23;;;19.70;99.90;;;;;;4655535;30;20043;-83
2022/06/24 05:07:54;;;;;;;11.85;10.85;;;19.70;99.90;;;;;;4665261;30;20042;-83
2022/06/24 05:10:20;;;;;;;12.10;10.90;;;19.70;99.90;;;;;;4662616;30;20054;-83
2022/06/24 05:12:45;;;;;;;13.30;12.00;;;19.80;99.90;;;;;;4665123;30;20073;-83
2022/06/24 05:15:11;;;;;;;13.50;12.30;;;19.80;99.90;;;;;;4664409;30;20042;-83
2022/06/24 05:17:36;;;;;;;14.27;12.32;;;19.70;99.90;;;;;;4648696;30;20058;-83
2022/06/24 05:20:02;;;;;;;13.48;12.07;;;19.80;99.90;;;;;;4662213;30;20051;-83
2022/06/24 05:22:28;;;;;;;12.60;11.50;;;19.70;99.90;;;;;;4648378;30;20053;-83
2022/06/24 05:24:54;;;;;;;13.68;12.38;;;19.70;99.90;;;;;;4665081;30;20042;-83
2022/06/24 05:27:19;;;;;;;15.27;13.75;;;19.70;99.90;;;;;;4656808;30;20074;-82
2022/06/24 05:29:45;;;;;;;14.60;13.10;;;19.60;99.90;;;;;;4664792;30;20057;-83
2022/06/24 05:32:10;;;;;;;13.80;12.52;;;19.70;99.90;;;;;;4663715;30;20511;-82
2022/06/24 05:34:36;;;;;;;13.52;12.15;;;19.60;99.90;;;;;;4649894;30;20082;-83
2022/06/24 05:37:02;;;;;;;12.20;11.00;;;19.60;99.90;;;;;;4664439;30;20081;-82
2022/06/24 05:39:27;;;;;;;13.63;12.23;;;19.60;99.90;;;;;;4663769;30;20046;-83
2022/06/24 05:41:53;;;;;;;14.48;13.10;;;19.60;99.90;;;;;;4664517;30;20042;-83
2022/06/24 05:44:18;;;;;;;15.15;13.65;;;19.60;99.90;;;;;;4664653;30;20051;-83
2022/06/24 05:46:44;;;;;;;14.02;12.73;;;19.60;99.90;;;;;;4663803;30;20184;-83
2022/06/24 05:49:10;;;;;;;14.65;13.27;;;19.70;99.90;;;;;;4662572;30;20434;-82
2022/06/24 05:51:38;;;;;;;13.25;12.00;;;19.80;99.90;;;;;;4650688;30;20054;-83
2022/06/24 05:55:04;;;;;;;14.43;12.93;;;19.90;99.90;;;;;;4664490;30;20050;-83
2022/06/24 05:56:59;;;;;;;12.70;11.60;;;20.00;99.90;;;;;;4664214;30;20094;-83
2022/06/24 05:59:25;;;;;;;12.52;11.27;;;20.10;99.90;;;;;;4662282;30;20078;-83
2022/06/24 06:01:50;;;;;;;13.40;12.02;;;20.10;99.90;;;;;;4653741;30;20133;-83
2022/06/24 06:04:16;;;;;;;12.23;10.23;;;20.20;99.90;;;;;;4663871;30;20049;-82
2022/06/24 06:06:42;;;;;;;10.52;9.57;;;20.30;99.90;;;;;;4663353;30;20042;-82
2022/06/24 06:09:08;;;;;;;9.55;8.55;;;20.30;99.90;;;;;;4663347;30;20050;-82
2022/06/24 06:11:33;;;;;;;9.10;8.23;;;20.30;99.90;;;;;;4663365;30;20502;-83
2022/06/24 06:13:59;;;;;;;7.88;7.07;;;20.30;99.90;;;;;;4649800;30;20532;-83
2022/06/24 06:16:26;;;;;;;9.68;7.72;;;20.20;99.90;;;;;;4662475;30;20057;-84
2022/06/24 06:18:52;;;;;;;7.97;7.18;;;20.20;99.90;;;;;;4663620;30;20458;-84
2022/06/24 06:21:18;;;;;;;7.88;7.07;;;20.10;99.90;;;;;;4663706;30;20047;-84
2022/06/24 06:23:44;;;;;;;8.27;7.43;;;20.10;99.90;;;;;;4663138;30;20413;-84
2022/06/24 06:26:11;;;;;;;8.30;7.53;;;20.10;99.90;;;;;;4657884;30;20460;-84
2022/06/24 06:28:37;;;;;;;8.18;7.38;;;20.10;99.90;;;;;;4670510;30;20054;-84
2022/06/24 06:31:03;;;;;;;10.10;7.95;;;20.10;99.90;;;;;;4663547;30;20064;-84
2022/06/24 06:33:32;;;;;;;9.13;7.80;;;20.10;99.90;;;;;;4663662;30;20141;-84
2022/06/24 06:36:09;;;;;;;9.02;7.55;;;20.10;99.90;;;;;;4658982;30;20101;-85
2022/06/24 06:38:35;;;;;;;8.68;7.88;;;20.10;99.90;;;;;;4646136;30;20089;-85
2022/06/24 06:41:01;;;;;;;9.93;7.82;;;20.10;99.90;;;;;;4663535;30;20137;-85
2022/06/24 06:43:27;;;;;;;7.95;7.22;;;20.10;99.90;;;;;;4663540;30;20053;-86
2022/06/24 06:45:53;;;;;;;8.55;7.70;;;20.10;99.90;;;;;;4663387;30;20051;-84
2022/06/24 06:48:20;;;;;;;8.55;7.75;;;20.10;99.90;;;;;;4660309;30;20523;-84
2022/06/24 06:50:46;;;;;;;8.75;7.85;;;20.20;99.90;;;;;;4647373;30;20038;-84
2022/06/24 08:47:01;;;;;;;23.40;11.38;;;19.00;99.90;;;;;;4682432;30;20058;-85
2022/06/24 08:49:27;;;;;;;26.35;12.70;;;18.90;99.90;;;;;;4696622;30;20061;-86
2022/06/24 08:51:56;;;;;;;45.03;15.05;;;18.80;99.90;;;;;;4697122;30;20054;-86
2022/06/24 08:54:28;;;;;;;38.45;12.73;;;18.70;99.90;;;;;;4665479;30;20046;-85
2022/06/24 08:56:54;;;;;;;19.83;9.88;;;18.60;99.90;;;;;;4661939;30;20567;-86
2022/06/24 09:09:41;;;;;;;18.60;7.57;;;18.40;99.90;;;;;;5320436;24;20046;-88
2022/06/24 09:12:07;;;;;;;13.25;6.85;;;18.30;99.90;;;;;;4682434;30;20072;-88
2022/06/24 09:14:48;;;;;;;31.33;8.63;;;18.30;99.90;;;;;;4682192;30;20057;-88
2022/06/24 09:17:13;;;;;;;13.35;5.78;;;18.20;99.90;;;;;;4666823;30;20148;-88
2022/06/24 09:19:39;;;;;;;16.88;7.32;;;18.10;99.90;;;;;;4666834;30;20336;-88
2022/06/24 09:22:05;;;;;;;23.85;8.95;;;18.10;99.90;;;;;;4681730;30;20085;-87
2022/06/24 09:24:45;;;;;;;21.65;10.25;;;18.10;99.90;;;;;;4682154;30;20410;-87
2022/06/24 09:27:11;;;;;;;18.90;9.50;;;18.10;99.90;;;;;;4681904;30;20054;-88
2022/06/24 09:29:37;;;;;;;27.45;10.23;;;18.10;99.90;;;;;;4681596;30;20518;-88
2022/06/24 09:32:08;;;;;;;22.23;10.15;;;18.20;99.90;;;;;;4666570;30;20049;-88
2022/06/24 09:34:33;;;;;;;18.33;9.50;;;18.20;99.90;;;;;;4695781;30;20065;-88
2022/06/24 09:36:59;;;;;;;24.10;10.20;;;18.30;99.90;;;;;;4681650;30;20053;-88
2022/06/24 09:39:25;;;;;;;41.70;14.80;;;18.30;99.90;;;;;;4667037;30;20466;-88
2022/06/24 09:41:55;;;;;;;24.02;11.20;;;18.30;99.90;;;;;;4681576;30;20050;-88
2022/06/24 09:44:21;;;;;;;15.50;9.68;;;18.30;99.90;;;;;;4667350;30;20046;-87
2022/06/24 09:47:00;;;;;;;27.77;12.45;;;18.30;99.90;;;;;;4680990;30;20045;-88
2022/06/24 09:49:26;;;;;;;20.40;12.15;;;18.30;99.90;;;;;;4681526;30;20054;-88
2022/06/24 09:51:51;;;;;;;15.70;11.10;;;18.50;99.90;;;;;;4667167;30;20104;-88
2022/06/24 09:54:18;;;;;;;15.43;11.57;;;18.60;99.90;;;;;;4667216;30;20358;-88
2022/06/24 09:56:47;;;;;;;21.80;14.00;;;18.60;99.90;;;;;;4666420;30;20054;-88
2022/06/24 10:02:02;;;;;;;32.70;17.90;;;18.90;99.90;;;;;;4709466;30;20135;-88
2022/06/24 10:04:28;;;;;;;19.23;14.88;;;19.10;99.90;;;;;;4664640;30;20084;-87
2022/06/24 10:06:56;;;;;;;16.10;14.50;;;19.30;99.90;;;;;;4666968;30;20133;-89
2022/06/24 10:09:30;;;;;;;14.77;13.20;;;19.40;99.90;;;;;;4680721;30;20052;-88
2022/06/24 10:12:01;;;;;;;19.00;14.00;;;19.60;99.90;;;;;;4676995;30;20053;-88
2022/06/24 10:14:29;;;;;;;15.38;12.27;;;19.60;99.90;;;;;;4681105;30;20057;-88
2022/06/24 10:16:56;;;;;;;12.25;10.75;;;19.70;99.90;;;;;;4679683;30;20132;-86
2022/06/24 10:19:25;;;;;;;21.65;12.40;;;19.70;99.90;;;;;;4679800;30;20072;-86
2022/06/24 10:21:52;;;;;;;19.38;12.70;;;19.60;99.90;;;;;;4687881;30;20095;-90
2022/06/24 10:24:40;;;;;;;18.02;12.35;;;19.40;99.90;;;;;;4681160;30;20046;-89
2022/06/24 10:27:06;;;;;;;18.25;12.70;;;19.40;99.90;;;;;;4679353;30;20050;-86
2022/06/24 10:29:33;;;;;;;22.58;12.88;;;19.40;99.90;;;;;;4692267;30;20085;-88
2022/06/24 10:32:01;;;;;;;19.88;13.43;;;19.40;99.90;;;;;;4679137;30;20052;-84
2022/06/24 10:34:32;;;;;;;22.85;14.10;;;19.40;99.90;;;;;;4685313;30;20502;-86
2022/06/24 10:37:10;;;;;;;16.02;12.98;;;19.40;99.90;;;;;;4680597;30;20136;-86
2022/06/24 10:39:53;;;;;;;16.00;12.70;;;19.40;99.90;;;;;;4680327;30;20060;-85
2022/06/24 10:42:22;;;;;;;15.07;13.38;;;19.50;99.90;;;;;;4665936;30;20046;-87
2022/06/24 10:44:57;;;;;;;15.93;14.27;;;19.50;99.90;;;;;;4695111;30;20038;-86
2022/06/24 10:47:26;;;;;;;18.83;13.23;;;19.60;99.90;;;;;;4694307;30;20050;-87
2022/06/24 10:49:51;;;;;;;14.07;12.73;;;19.70;99.90;;;;;;4680034;30;20054;-86
2022/06/24 10:52:37;;;;;;;15.68;14.07;;;19.80;99.90;;;;;;4679401;30;20112;-85
2022/06/24 10:55:21;;;;;;;14.15;12.80;;;20.00;99.90;;;;;;4688288;30;20430;-90
2022/06/24 10:57:56;;;;;;;15.13;13.73;;;20.10;99.90;;;;;;4679597;30;20050;-89
2022/06/24 11:00:24;;;;;;;14.73;13.23;;;20.10;99.90;;;;;;4692904;30;20050;-89
2022/06/24 11:03:11;;;;;;;16.67;15.20;;;20.20;99.90;;;;;;4672928;30;20050;-88
2022/06/24 11:05:39;;;;;;;15.50;14.20;;;20.30;99.90;;;;;;4652501;30;20133;-89
2022/06/24 11:08:14;;;;;;;17.17;15.77;;;20.50;99.90;;;;;;4666056;30;20562;-88
2022/06/24 11:10:41;;;;;;;17.42;15.93;;;20.60;99.90;;;;;;4665665;30;20056;-89
2022/06/24 11:13:07;;;;;;;17.13;15.73;;;20.60;99.90;;;;;;4666261;30;20071;-89
2022/06/24 11:15:45;;;;;;;17.08;15.63;;;20.70;99.90;;;;;;4666420;30;20065;-89
2022/06/24 11:18:19;;;;;;;19.05;17.58;;;20.70;99.90;;;;;;4665574;30;20140;-89
2022/06/24 11:21:00;;;;;;;19.08;17.08;;;20.70;99.90;;;;;;4708324;30;20137;-88
2022/06/24 11:23:28;;;;;;;20.75;18.95;;;20.70;99.90;;;;;;4664250;30;20137;-88
2022/06/24 11:26:03;;;;;;;22.50;20.63;;;20.80;99.90;;;;;;4663199;30;20494;-87
2022/06/24 11:28:30;;;;;;;21.48;19.52;;;20.90;99.90;;;;;;4694084;30;20405;-89
2022/06/24 11:31:13;;;;;;;20.73;19.05;;;21.00;99.90;;;;;;4680097;30;20046;-88
2022/06/24 11:33:39;;;;;;;20.63;18.83;;;21.00;99.90;;;;;;4680706;30;20129;-87
2022/06/24 11:36:04;;;;;;;21.88;20.08;;;21.10;99.90;;;;;;4680456;30;20168;-87
2022/06/24 11:38:32;;;;;;;21.65;19.95;;;21.20;99.90;;;;;;4681034;30;20042;-86
2022/06/24 11:40:58;;;;;;;21.33;19.60;;;21.20;99.90;;;;;;4666019;30;20502;-87
2022/06/24 11:43:24;;;;;;;24.13;22.08;;;21.30;99.90;;;;;;4680514;30;20042;-87
2022/06/24 11:45:50;;;;;;;25.67;23.38;;;21.40;99.90;;;;;;4665778;30;20042;-85
2022/06/24 11:48:22;;;;;;;26.00;23.73;;;21.60;99.90;;;;;;4665378;30;20135;-86
2022/06/24 11:50:47;;;;;;;24.23;22.23;;;21.70;99.90;;;;;;4665031;30;20046;-86
2022/06/24 11:53:14;;;;;;;25.10;23.00;;;22.00;99.90;;;;;;4693594;30;20128;-86
2022/06/24 11:55:40;;;;;;;23.38;21.25;;;22.20;99.90;;;;;;4665068;30;20046;-86
2022/06/24 11:58:08;;;;;;;21.10;19.23;;;22.30;99.90;;;;;;4668708;30;20060;-86
2022/06/24 12:00:39;;;;;;;21.40;19.40;;;22.40;99.90;;;;;;4683085;30;20042;-87
2022/06/24 12:03:07;;;;;;;19.75;17.85;;;22.50;99.90;;;;;;4668539;30;20068;-86
2022/06/24 12:05:37;;;;;;;21.70;20.00;;;22.50;99.90;;;;;;4668632;30;20045;-85
2022/06/24 12:08:03;;;;;;;19.13;17.48;;;22.50;99.90;;;;;;4682196;30;20487;-86
2022/06/24 12:10:29;;;;;;;18.95;17.23;;;22.60;99.90;;;;;;4679383;30;20088;-86
2022/06/24 12:12:57;;;;;;;20.00;18.30;;;22.60;99.90;;;;;;4705333;30;20050;-85
2022/06/24 12:15:46;;;;;;;20.88;19.13;;;22.70;99.90;;;;;;4683005;30;20049;-85
2022/06/24 12:18:18;;;;;;;22.23;20.50;;;22.80;99.90;;;;;;4661671;30;20418;-85
2022/06/24 12:20:57;;;;;;;23.60;21.65;;;22.90;99.90;;;;;;4682553;30;20061;-85
2022/06/24 12:23:25;;;;;;;24.17;22.15;;;23.20;99.90;;;;;;4668860;30;20494;-85
2022/06/24 12:25:51;;;;;;;20.63;19.02;;;23.30;99.90;;;;;;4668639;30;20101;-84
2022/06/24 12:28:25;;;;;;;22.02;20.23;;;23.40;99.90;;;;;;4684082;30;20161;-85
2022/06/24 12:31:11;;;;;;;22.08;20.25;;;23.40;99.90;;;;;;4682103;30;20402;-84
2022/06/24 12:33:54;;;;;;;21.75;19.85;;;23.30;99.90;;;;;;4667784;30;20042;-84
2022/06/24 12:36:44;;;;;;;21.83;20.08;;;23.20;99.90;;;;;;4667919;30;20057;-85
2022/06/24 12:39:11;;;;;;;22.63;20.42;;;23.10;99.90;;;;;;4705864;30;20427;-85
2022/06/24 12:41:47;;;;;;;23.88;21.90;;;23.00;99.90;;;;;;4668285;30;20053;-85
2022/06/24 12:44:14;;;;;;;22.63;20.88;;;23.00;99.90;;;;;;4668451;30;20045;-85
2022/06/24 12:52:39;;;;;;;25.10;23.20;;;23.00;99.90;;;;;;4681815;30;20120;-84
2022/06/24 12:55:08;;;;;;;24.17;22.15;;;23.00;99.90;;;;;;4667350;30;20105;-84
2022/06/24 12:57:34;;;;;;;26.60;24.58;;;23.00;99.90;;;;;;4667694;30;20413;-84
2022/06/24 13:00:01;;;;;;;29.55;27.35;;;22.90;99.90;;;;;;4664774;30;20081;-83
2022/06/24 13:02:27;;;;;;;30.60;27.92;;;22.90;99.90;;;;;;4667994;30;20056;-84
2022/06/24 13:04:52;;;;;;;29.58;27.27;;;23.00;99.90;;;;;;4695800;30;20129;-85
2022/06/24 13:07:18;;;;;;;31.33;28.83;;;23.20;99.90;;;;;;4665920;30;20096;-84
2022/06/24 13:09:44;;;;;;;31.48;29.08;;;23.50;99.90;;;;;;4694415;30;20046;-84
2022/06/24 13:12:10;;;;;;;31.48;28.98;;;23.80;99.90;;;;;;4696434;30;20060;-84
2022/06/24 13:14:35;;;;;;;29.17;27.00;;;24.10;99.90;;;;;;4667912;30;20050;-85
2022/06/24 13:17:01;;;;;;;29.75;27.33;;;24.30;99.90;;;;;;4711101;30;20418;-85
2022/06/24 13:19:27;;;;;;;25.80;23.85;;;24.50;99.90;;;;;;4667593;30;20479;-86
2022/06/24 13:21:52;;;;;;;24.73;22.83;;;24.60;99.90;;;;;;4668439;30;20502;-85
2022/06/24 13:24:19;;;;;;;25.08;23.17;;;24.70;99.90;;;;;;4667968;30;20049;-85
2022/06/24 13:26:46;;;;;;;30.42;28.02;;;25.10;99.90;;;;;;4681738;30;20494;-85
2022/06/24 13:29:12;;;;;;;29.00;26.63;;;25.40;99.90;;;;;;4695411;30;20046;-85
2022/06/24 13:31:38;;;;;;;31.00;28.70;;;25.80;99.90;;;;;;4696448;30;20391;-85
2022/06/24 13:34:04;;;;;;;26.95;24.85;;;26.00;99.90;;;;;;4696296;30;20502;-85
2022/06/24 13:36:29;;;;;;;28.95;26.65;;;26.10;99.90;;;;;;4694649;30;20208;-85
2022/06/24 13:38:55;;;;;;;24.33;22.33;;;26.00;99.90;;;;;;4667013;30;20142;-85
2022/06/24 13:41:21;;;;;;;23.80;22.00;;;26.10;99.90;;;;;;4661009;30;20418;-85
2022/06/24 13:43:46;;;;;;;25.20;23.20;;;26.50;99.90;;;;;;4709616;30;20711;-85
2022/06/24 13:46:12;;;;;;;23.02;21.23;;;26.70;99.90;;;;;;4696002;30;20046;-85
2022/06/24 13:48:38;;;;;;;20.52;18.92;;;26.90;99.90;;;;;;4681661;30;20141;-84
2022/06/24 13:51:03;;;;;;;18.25;16.73;;;27.10;99.90;;;;;;4695851;30;20081;-85
2022/06/24 13:53:29;;;;;;;17.00;15.60;;;27.00;99.90;;;;;;4678263;30;20042;-85
2022/06/24 13:55:55;;;;;;;19.40;17.85;;;26.70;99.90;;;;;;4679271;30;20042;-85
2022/06/24 13:58:20;;;;;;;24.55;22.55;;;26.40;99.90;;;;;;4681344;30;20127;-85
2022/06/24 14:00:46;;;;;;;20.02;18.60;;;26.10;99.90;;;;;;4681322;30;20494;-85
2022/06/24 14:03:11;;;;;;;20.10;18.50;;;25.80;99.90;;;;;;4681380;30;20138;-85
2022/06/24 14:05:37;;;;;;;21.95;20.05;;;25.60;99.90;;;;;;4677455;30;20049;-85
2022/06/24 14:08:03;;;;;;;24.02;22.15;;;25.60;99.90;;;;;;4666732;30;20410;-84
2022/06/24 14:10:29;;;;;;;20.95;19.25;;;25.70;99.90;;;;;;4695235;30;20054;-84
2022/06/24 14:12:55;;;;;;;17.80;16.40;;;25.80;99.90;;;;;;4694714;30;20114;-85
2022/06/24 14:15:21;;;;;;;19.52;18.05;;;25.60;99.90;;;;;;4666787;30;20050;-85
2022/06/24 14:17:46;;;;;;;19.65;18.08;;;25.50;99.90;;;;;;4673372;30;20053;-85
2022/06/24 14:20:13;;;;;;;22.20;20.40;;;25.30;99.90;;;;;;4680656;30;20514;-84
2022/06/24 14:24:31;;;;;;;20.70;19.00;;;25.10;99.90;;;;;;4708430;30;20419;-85
2022/06/24 14:25:26;;;;;;;16.90;15.48;;;25.10;99.90;;;;;;4681019;30;20116;-86
2022/06/24 14:27:51;;;;;;;18.88;17.17;;;25.00;99.90;;;;;;4690147;30;20477;-87
2022/06/24 14:30:17;;;;;;;18.10;16.80;;;25.00;99.90;;;;;;4666759;30;20132;-86
2022/06/24 14:32:42;;;;;;;18.00;16.63;;;24.90;99.90;;;;;;4665897;30;20053;-86
2022/06/24 14:35:08;;;;;;;18.98;17.48;;;24.80;99.90;;;;;;4666438;30;20041;-86
2022/06/24 14:40:19;;;;;;;21.23;19.52;;;24.50;99.90;;;;;;4683703;30;20191;-86
2022/06/24 14:42:44;;;;;;;18.88;17.38;;;24.30;99.90;;;;;;4695298;30;20053;-86
2022/06/24 14:45:10;;;;;;;18.45;16.75;;;24.10;99.90;;;;;;4680679;30;20038;-85
2022/06/24 14:47:39;;;;;;;19.00;17.50;;;24.10;99.90;;;;;;4666246;30;20113;-85
2022/06/24 14:50:06;;;;;;;18.95;17.45;;;24.10;99.90;;;;;;4679368;30;20137;-86
2022/06/24 14:52:32;;;;;;;19.02;17.38;;;24.00;99.90;;;;;;4666386;30;20398;-86